createdAt,value
2018-01-06T19:42:46.122Z,97403.95
2018-01-06T19:45:13.660Z,97401.23
2018-01-06T19:47:41.201Z,97405.02
2018-01-06T19:50:08.742Z,97416.98
2018-01-06T19:54:59.880Z,97427.53
2018-01-06T20:02:01.295Z,97430.96
2018-01-06T20:09:47.199Z,97443.55
2018-01-06T20:12:14.721Z,97446.46
2018-01-06T20:14:42.277Z,97446.98
2018-01-06T20:17:09.823Z,97442.02
2018-01-06T20:33:28.434Z,97456.84
2018-01-06T20:35:56.725Z,97460.39
2018-01-06T20:38:24.287Z,97466.95
2018-01-06T20:40:51.826Z,97460.00
2018-01-06T20:43:19.434Z,97465.44
2018-01-06T20:45:46.971Z,97466.93
2018-01-06T20:48:14.517Z,97469.23
2018-01-06T20:50:42.096Z,97476.50
2018-01-06T20:53:09.646Z,97473.20
2018-01-06T20:55:37.551Z,97473.20
2018-01-06T21:01:08.462Z,97476.41
2018-01-06T21:03:51.152Z,97470.24
2018-01-06T21:06:18.724Z,97477.44
2018-01-06T21:08:46.268Z,97486.34
2018-01-06T21:11:13.799Z,97482.48
2018-01-06T21:13:41.350Z,97485.72
2018-01-06T21:16:08.886Z,97491.33
2018-01-06T21:18:36.416Z,97486.53
2018-01-06T21:21:03.955Z,97489.10
2018-01-06T21:23:31.591Z,97495.55
2018-01-06T21:25:59.150Z,97502.94
2018-01-06T21:28:26.664Z,97502.27
2018-01-06T21:30:54.209Z,97499.55
2018-01-06T21:33:21.780Z,97505.70
2018-01-06T21:35:49.337Z,97497.40
2018-01-06T21:38:16.872Z,97489.84
2018-01-06T21:40:44.412Z,97492.45
2018-01-06T21:43:11.932Z,97495.87
2018-01-06T21:45:39.554Z,97500.52
2018-01-06T21:48:07.113Z,97513.67
2018-01-06T21:50:34.671Z,97521.98
2018-01-06T21:53:02.215Z,97518.36
2018-01-06T21:55:29.755Z,97515.63
2018-01-06T21:57:57.362Z,97515.25
2018-01-06T22:00:24.950Z,97513.25
2018-01-06T22:02:52.531Z,97509.11
2018-01-06T22:05:20.112Z,97515.17
2018-01-06T22:07:47.654Z,97520.55
2018-01-06T22:10:15.219Z,97522.49
2018-01-06T22:12:42.791Z,97520.47
2018-01-06T22:15:10.394Z,97528.05
2018-01-06T22:17:37.976Z,97520.31
2018-01-06T22:20:05.529Z,97526.05
2018-01-06T22:22:33.089Z,97525.23
2018-01-06T22:25:00.652Z,97538.13
2018-01-06T22:27:28.219Z,97548.26
2018-01-06T22:29:55.780Z,97550.38
2018-01-06T22:32:23.402Z,97553.87
2018-01-06T22:34:50.927Z,97551.11
2018-01-06T22:37:18.786Z,97551.98
2018-01-06T22:39:46.356Z,97555.66
2018-01-06T22:42:13.875Z,97565.95
2018-01-06T22:44:41.430Z,97557.98
2018-01-06T22:47:09.080Z,97557.68
2018-01-06T22:49:36.615Z,97553.33
2018-01-06T22:52:04.192Z,97553.38
2018-01-06T22:54:31.802Z,97557.72
2018-01-06T22:56:59.525Z,97560.33
2018-01-06T22:59:27.135Z,97560.73
2018-01-06T23:01:54.665Z,97553.19
2018-01-06T23:04:22.247Z,97562.58
2018-01-06T23:06:49.784Z,97562.96
2018-01-06T23:09:17.345Z,97569.25
2018-01-06T23:11:44.872Z,97574.76
2018-01-06T23:14:12.401Z,97576.10
2018-01-06T23:16:39.930Z,97570.69
2018-01-06T23:19:07.471Z,97569.89
2018-01-06T23:21:35.060Z,97568.81
2018-01-06T23:24:02.636Z,97568.61
2018-01-06T23:26:30.215Z,97568.63
2018-01-06T23:28:57.872Z,97578.78
2018-01-06T23:31:25.396Z,97579.39
2018-01-06T23:33:52.941Z,97579.74
2018-01-06T23:36:20.541Z,97591.91
2018-01-06T23:38:48.055Z,97593.47
2018-01-06T23:41:15.607Z,97605.45
2018-01-06T23:43:43.152Z,97607.84
2018-01-06T23:46:10.731Z,97607.83
2018-01-06T23:48:46.240Z,97603.18
2018-01-06T23:51:13.822Z,97605.67
2018-01-06T23:53:41.372Z,97608.12
2018-01-06T23:56:08.920Z,97607.28
2018-01-06T23:58:36.475Z,97601.05
